createdAt,value
2019-02-05T00:01:48.850Z,14.07
2019-02-05T00:04:19.148Z,12.70
2019-02-05T00:06:49.511Z,15.63
2019-02-05T00:09:19.755Z,14.13
2019-02-05T00:11:49.977Z,13.03
2019-02-05T00:14:20.352Z,12.10
2019-02-05T00:16:50.600Z,15.17
2019-02-05T00:19:20.971Z,14.00
2019-02-05T00:21:51.206Z,15.07
2019-02-05T00:24:21.440Z,14.30
2019-02-05T00:26:51.778Z,18.13
2019-02-05T00:29:22.149Z,12.80
2019-02-05T00:31:52.353Z,10.93
2019-02-05T00:34:22.621Z,14.60
2019-02-05T00:36:52.898Z,14.10
2019-02-05T00:39:24.178Z,15.87
2019-02-05T00:41:54.764Z,18.27
2019-02-05T00:44:25.016Z,11.37
2019-02-05T00:46:55.208Z,15.13
2019-02-05T00:49:25.439Z,12.43
2019-02-05T00:51:56.734Z,14.97
2019-02-05T00:54:26.986Z,18.10
2019-02-05T00:56:57.265Z,15.73
2019-02-05T00:59:27.482Z,15.67
2019-02-05T01:01:58.094Z,16.50
2019-02-05T01:04:28.301Z,14.77
2019-02-05T01:06:59.866Z,20.63
2019-02-05T01:09:30.401Z,16.17
2019-02-05T01:12:00.762Z,13.23
2019-02-05T01:14:31.169Z,15.93
2019-02-05T01:17:01.503Z,18.27
2019-02-05T01:19:31.713Z,15.20
2019-02-05T01:22:01.962Z,15.43
2019-02-05T01:24:32.193Z,13.33
2019-02-05T01:27:02.458Z,16.73
2019-02-05T01:29:33.384Z,16.50
2019-02-05T01:32:03.609Z,16.07
2019-02-05T01:34:33.831Z,15.60
2019-02-05T01:37:04.117Z,14.00
2019-02-05T01:39:34.286Z,15.77
2019-02-05T01:42:04.475Z,19.97
2019-02-05T01:44:34.689Z,16.37
2019-02-05T01:47:05.291Z,24.10
2019-02-05T01:49:36.010Z,18.77
2019-02-05T01:52:06.459Z,14.00
2019-02-05T01:54:36.683Z,20.47
2019-02-05T01:57:06.927Z,17.17
2019-02-05T01:59:37.180Z,16.97
2019-02-05T02:02:07.675Z,19.13
2019-02-05T02:04:38.064Z,15.47
2019-02-05T02:07:08.849Z,17.97
2019-02-05T02:09:39.151Z,16.83
2019-02-05T02:12:09.415Z,20.67
2019-02-05T02:14:39.633Z,13.00
2019-02-05T02:17:10.218Z,18.43
2019-02-05T02:19:40.496Z,18.67
2019-02-05T02:22:10.691Z,16.30
2019-02-05T02:24:40.957Z,16.13
2019-02-05T02:27:11.160Z,14.77
2019-02-05T02:29:41.377Z,19.07
2019-02-05T02:32:11.886Z,13.90
2019-02-05T02:34:42.131Z,18.37
2019-02-05T02:37:12.329Z,15.07
2019-02-05T02:39:42.693Z,18.07
2019-02-05T02:42:12.912Z,19.03
2019-02-05T02:44:43.196Z,15.33
2019-02-05T02:47:13.396Z,20.07
2019-02-05T02:49:43.603Z,16.27
2019-02-05T02:52:13.824Z,17.10
2019-02-05T02:54:44.093Z,15.90
2019-02-05T02:57:14.310Z,16.57
2019-02-05T02:59:44.798Z,15.57
2019-02-05T03:02:15.265Z,16.43
2019-02-05T03:04:45.523Z,16.67
2019-02-05T03:07:15.869Z,19.80
2019-02-05T03:09:46.120Z,14.60
2019-02-05T03:12:16.310Z,17.13
2019-02-05T03:14:46.864Z,17.57
2019-02-05T03:17:17.075Z,15.07
2019-02-05T03:19:47.253Z,15.63
2019-02-05T03:22:17.519Z,18.93
2019-02-05T03:24:47.744Z,18.83
2019-02-05T03:27:18.542Z,17.73
2019-02-05T03:29:48.861Z,15.73
2019-02-05T03:32:19.337Z,16.57
2019-02-05T03:34:49.543Z,14.37
2019-02-05T03:37:20.941Z,14.47
2019-02-05T03:39:51.166Z,16.70
2019-02-05T03:42:21.443Z,17.17
2019-02-05T03:44:51.654Z,13.73
2019-02-05T03:47:21.936Z,12.27
2019-02-05T03:49:52.951Z,15.60
2019-02-05T03:52:29.668Z,13.53
2019-02-05T03:55:27.883Z,14.90
2019-02-05T03:58:20.187Z,16.07
2019-02-05T04:01:30.092Z,15.60
2019-02-05T04:04:28.458Z,14.77
2019-02-05T04:07:30.684Z,19.67
2019-02-05T04:10:46.184Z,16.77
2019-02-05T04:13:52.174Z,17.60
2019-02-05T04:16:49.856Z,14.57
2019-02-05T04:20:04.109Z,14.50
2019-02-05T04:23:09.944Z,25.73
2019-02-05T04:26:26.517Z,15.73
2019-02-05T04:29:27.830Z,20.80
2019-02-05T04:32:54.213Z,18.13
2019-02-05T04:36:01.266Z,19.57
2019-02-05T04:39:15.201Z,15.63
2019-02-05T04:42:20.459Z,22.80
2019-02-05T04:45:34.094Z,18.47
2019-02-05T04:48:45.218Z,20.93
2019-02-05T04:52:08.277Z,21.07
2019-02-05T04:55:31.447Z,19.00
2019-02-05T04:58:51.815Z,15.00
2019-02-05T05:01:43.320Z,16.63
2019-02-05T05:04:50.259Z,20.07
2019-02-05T05:07:48.485Z,17.57
2019-02-05T05:10:18.719Z,18.33
2019-02-05T05:12:48.932Z,15.80
2019-02-05T05:15:19.352Z,19.73
2019-02-05T05:17:49.609Z,16.40
2019-02-05T05:20:19.897Z,21.80
2019-02-05T05:22:50.943Z,16.87
2019-02-05T05:25:21.493Z,17.63
2019-02-05T05:27:54.891Z,18.27
2019-02-05T05:30:25.232Z,18.13
2019-02-05T05:32:55.448Z,15.83
2019-02-05T05:35:27.100Z,21.03
2019-02-05T05:37:57.920Z,21.67
2019-02-05T05:40:28.123Z,19.20
2019-02-05T05:42:58.373Z,17.73
2019-02-05T05:45:28.687Z,19.33
2019-02-05T05:47:58.901Z,20.07
2019-02-05T05:50:29.468Z,20.07
2019-02-05T05:52:59.717Z,23.67
2019-02-05T05:55:29.913Z,21.57
2019-02-05T05:58:00.313Z,23.07
2019-02-05T06:00:30.495Z,21.97
2019-02-05T06:03:00.670Z,17.23
2019-02-05T06:05:31.663Z,17.80
2019-02-05T06:08:01.912Z,17.70
2019-02-05T06:10:32.153Z,18.13
2019-02-05T06:13:02.381Z,18.53
2019-02-05T06:15:32.571Z,17.63
2019-02-05T06:18:02.895Z,21.43
2019-02-05T06:20:34.861Z,18.50
2019-02-05T06:23:05.076Z,16.33
2019-02-05T06:25:35.307Z,17.43
2019-02-05T06:28:05.824Z,19.20
2019-02-05T06:30:36.121Z,17.07
2019-02-05T06:33:08.706Z,13.03
2019-02-05T06:35:39.278Z,17.87
2019-02-05T06:38:09.521Z,14.50
2019-02-05T06:40:39.689Z,15.23
2019-02-05T06:43:10.981Z,15.57
2019-02-05T06:45:41.796Z,18.43
2019-02-05T06:48:12.256Z,13.83
2019-02-05T06:50:43.206Z,17.20
2019-02-05T06:53:13.872Z,15.23
2019-02-05T06:55:44.076Z,16.97
2019-02-05T06:58:14.324Z,15.43
2019-02-05T07:00:44.729Z,20.47
2019-02-05T07:03:15.450Z,17.20
2019-02-05T07:05:46.007Z,15.17
2019-02-05T07:08:16.263Z,17.03
2019-02-05T07:10:46.509Z,17.50
2019-02-05T07:13:16.826Z,17.40
2019-02-05T07:15:47.147Z,17.83
2019-02-05T07:18:17.769Z,16.20
2019-02-05T07:20:48.041Z,17.10
2019-02-05T07:23:18.288Z,15.37
2019-02-05T07:25:48.723Z,16.73
2019-02-05T07:28:19.020Z,15.43
2019-02-05T07:30:49.564Z,17.67
2019-02-05T07:33:20.442Z,21.97
2019-02-05T07:35:50.737Z,15.97
2019-02-05T07:38:21.091Z,17.23
2019-02-05T07:40:52.414Z,12.70
2019-02-05T07:43:22.742Z,16.07
2019-02-05T07:45:53.049Z,23.43
2019-02-05T07:48:23.460Z,17.00
2019-02-05T07:50:53.740Z,14.37
2019-02-05T07:53:24.024Z,19.27
2019-02-05T07:55:54.360Z,16.40
2019-02-05T07:58:24.658Z,14.63
2019-02-05T08:00:54.974Z,15.63
2019-02-05T08:03:25.187Z,15.37
2019-02-05T08:05:56.146Z,15.17
2019-02-05T08:08:26.613Z,16.73
2019-02-05T08:10:56.929Z,18.13
2019-02-05T08:13:27.393Z,13.73
2019-02-05T08:15:57.780Z,17.73
2019-02-05T08:18:28.149Z,14.90
2019-02-05T08:20:58.525Z,20.43
2019-02-05T08:23:29.559Z,13.27
2019-02-05T08:25:59.957Z,13.57
2019-02-05T08:28:40.633Z,15.67
2019-02-05T08:31:02.479Z,11.43
2019-02-05T08:33:32.723Z,12.33
2019-02-05T08:36:04.826Z,17.00
2019-02-05T08:38:35.125Z,11.90
2019-02-05T08:41:06.484Z,15.58
2019-02-05T08:43:37.000Z,13.33
2019-02-05T08:46:08.590Z,11.93
2019-02-05T08:48:38.938Z,13.63
2019-02-05T08:51:09.311Z,12.00
2019-02-05T08:53:42.820Z,13.53
2019-02-05T08:56:17.262Z,15.37
2019-02-05T08:58:52.967Z,13.10
2019-02-05T09:01:29.756Z,14.67
2019-02-05T09:04:00.481Z,18.07
2019-02-05T09:06:35.436Z,13.90
2019-02-05T09:09:09.804Z,14.17
2019-02-05T09:11:41.012Z,12.10
2019-02-05T09:14:47.362Z,17.20
2019-02-05T09:17:07.334Z,17.63
2019-02-05T09:19:37.951Z,14.57
2019-02-05T09:22:08.370Z,18.43
2019-02-05T09:24:53.964Z,14.30
2019-02-05T09:27:24.312Z,14.77
2019-02-05T09:30:05.342Z,11.83
2019-02-05T09:32:35.628Z,12.60
2019-02-05T09:35:07.014Z,11.77
2019-02-05T09:37:37.338Z,14.17
2019-02-05T09:40:10.282Z,14.00
2019-02-05T09:42:40.680Z,13.93
2019-02-05T09:45:12.819Z,13.10
2019-02-05T09:47:43.621Z,14.60
2019-02-05T09:50:14.962Z,14.37
2019-02-05T09:52:45.543Z,13.87
2019-02-05T09:55:16.332Z,13.60
2019-02-05T09:57:46.740Z,14.37
2019-02-05T10:00:19.961Z,16.23
2019-02-05T10:02:50.450Z,15.30
2019-02-05T10:05:22.950Z,12.67
2019-02-05T10:07:53.760Z,15.57
2019-02-05T10:10:24.304Z,12.83
2019-02-05T10:12:55.512Z,13.40
2019-02-05T10:15:28.466Z,14.90
2019-02-05T10:17:58.706Z,10.80
2019-02-05T10:20:29.240Z,14.43
2019-02-05T10:23:02.670Z,13.37
2019-02-05T10:25:32.969Z,16.27
2019-02-05T10:28:03.210Z,12.10
2019-02-05T10:30:36.006Z,12.93
2019-02-05T10:33:07.409Z,15.80
2019-02-05T10:35:37.679Z,14.67
2019-02-05T10:38:08.246Z,13.40
2019-02-05T10:40:38.685Z,11.93
2019-02-05T10:43:09.083Z,12.83
2019-02-05T10:45:39.624Z,11.77
2019-02-05T10:48:11.092Z,12.73
2019-02-05T10:50:41.560Z,13.83
2019-02-05T10:53:11.805Z,11.47
2019-02-05T10:55:42.209Z,10.83
2019-02-05T10:58:22.113Z,10.20
2019-02-05T11:01:13.780Z,11.37
2019-02-05T11:03:59.714Z,12.00
2019-02-05T11:06:43.158Z,7.63
2019-02-05T11:09:38.389Z,8.17
2019-02-05T11:12:17.256Z,8.97
2019-02-05T11:14:49.187Z,8.90
2019-02-05T11:17:19.669Z,11.97
2019-02-05T11:19:49.944Z,9.13
2019-02-05T11:22:20.868Z,13.63
2019-02-05T11:24:52.147Z,11.53
2019-02-05T11:27:22.461Z,10.87
2019-02-05T11:29:56.003Z,10.40
2019-02-05T11:32:27.675Z,13.37
2019-02-05T11:34:57.915Z,13.67
2019-02-05T11:37:28.465Z,15.00
2019-02-05T11:39:58.718Z,13.73
2019-02-05T11:42:29.470Z,12.47
2019-02-05T11:44:59.694Z,13.67
2019-02-05T11:47:30.283Z,11.43
2019-02-05T11:50:00.806Z,13.60
2019-02-05T11:52:32.364Z,14.97
2019-02-05T11:55:02.919Z,13.50
2019-02-05T11:57:33.673Z,12.93
2019-02-05T12:00:04.220Z,12.53
2019-02-05T12:02:36.847Z,14.00
2019-02-05T12:05:07.503Z,13.90
2019-02-05T12:07:37.858Z,17.37
2019-02-05T12:10:10.203Z,17.10
2019-02-05T12:12:40.673Z,14.30
2019-02-05T12:15:12.069Z,16.17
2019-02-05T12:17:42.489Z,16.60
2019-02-05T12:20:14.053Z,16.03
2019-02-05T12:22:44.659Z,15.80
2019-02-05T12:25:16.243Z,13.97
2019-02-05T12:27:46.676Z,15.37
2019-02-05T12:30:24.045Z,15.73
2019-02-05T12:32:54.817Z,14.97
2019-02-05T12:35:25.095Z,13.83
2019-02-05T12:37:55.753Z,17.27
2019-02-05T12:40:26.583Z,16.30
2019-02-05T12:42:57.180Z,15.83
2019-02-05T12:45:29.261Z,17.20
2019-02-05T12:48:00.127Z,14.73
2019-02-05T12:50:32.531Z,16.17
2019-02-05T12:53:03.247Z,17.10
2019-02-05T12:55:33.633Z,16.23
2019-02-05T12:58:04.313Z,18.43
2019-02-05T13:00:37.804Z,17.40
2019-02-05T13:03:10.483Z,18.07
2019-02-05T13:05:42.554Z,17.20
2019-02-05T13:08:12.949Z,17.10
2019-02-05T13:10:45.449Z,20.13
2019-02-05T13:13:18.172Z,15.40
2019-02-05T13:15:48.221Z,18.70
2019-02-05T13:18:19.839Z,18.37
2019-02-05T13:20:51.201Z,20.00
2019-02-05T13:23:21.806Z,17.60
2019-02-05T13:25:52.011Z,16.07
2019-02-05T13:28:22.550Z,19.73
2019-02-05T13:30:52.759Z,20.63
2019-02-05T13:33:23.473Z,19.03
2019-02-05T13:35:55.563Z,19.20
2019-02-05T13:38:25.931Z,19.63
2019-02-05T13:40:56.514Z,19.27
2019-02-05T13:43:26.902Z,17.70
2019-02-05T13:45:57.431Z,20.43
2019-02-05T13:48:28.050Z,18.70
2019-02-05T13:50:58.337Z,17.63
2019-02-05T13:53:28.640Z,19.87
2019-02-05T13:55:58.911Z,17.63
2019-02-05T13:58:30.715Z,20.57
2019-02-05T14:01:01.020Z,22.77
2019-02-05T14:03:31.322Z,19.73
2019-02-05T14:06:01.573Z,23.67
2019-02-05T14:08:31.940Z,20.03
2019-02-05T14:11:02.568Z,23.07
2019-02-05T14:13:33.274Z,19.73
2019-02-05T14:16:06.244Z,20.40
2019-02-05T14:18:36.567Z,20.93
2019-02-05T14:21:06.830Z,20.47
2019-02-05T14:23:37.192Z,22.83
2019-02-05T14:26:07.768Z,25.43
2019-02-05T14:28:39.512Z,25.63
2019-02-05T14:31:10.045Z,21.87
2019-02-05T14:33:40.337Z,18.20
2019-02-05T14:36:10.767Z,20.83
2019-02-05T14:38:41.416Z,23.33
2019-02-05T14:41:11.883Z,22.37
2019-02-05T14:43:45.467Z,21.67
2019-02-05T14:46:18.490Z,22.27
2019-02-05T14:49:00.519Z,23.33
2019-02-05T14:51:31.906Z,23.33
2019-02-05T14:54:12.583Z,25.23
2019-02-05T14:57:06.295Z,22.53
2019-02-05T14:59:52.026Z,22.77
2019-02-05T15:02:23.019Z,24.30
2019-02-05T15:05:03.594Z,29.37
2019-02-05T15:07:37.508Z,27.03
2019-02-05T15:10:09.949Z,22.27
2019-02-05T15:12:45.499Z,24.33
2019-02-05T15:15:18.321Z,23.73
2019-02-05T15:17:49.111Z,25.13
2019-02-05T15:20:31.174Z,26.53
2019-02-05T15:23:02.183Z,25.60
2019-02-05T15:25:36.805Z,24.10
2019-02-05T15:28:11.742Z,24.93
2019-02-05T15:30:54.871Z,23.73
2019-02-05T15:33:45.708Z,21.43
2019-02-05T15:36:35.349Z,23.27
2019-02-05T15:39:12.551Z,24.77
2019-02-05T15:41:43.049Z,22.90
2019-02-05T15:44:13.672Z,28.00
2019-02-05T15:46:44.003Z,24.37
2019-02-05T15:49:14.214Z,27.17
2019-02-05T15:51:44.629Z,26.97
2019-02-05T15:54:14.919Z,23.93
2019-02-05T15:56:46.168Z,28.00
2019-02-05T15:59:16.654Z,25.30
2019-02-05T16:01:46.983Z,27.47
2019-02-05T16:04:17.347Z,24.63
2019-02-05T16:06:47.800Z,24.83
2019-02-05T16:09:18.143Z,25.90
2019-02-05T16:11:50.384Z,22.83
2019-02-05T16:14:21.071Z,27.30
2019-02-05T16:16:51.332Z,22.93
2019-02-05T16:19:21.597Z,24.63
2019-02-05T16:21:51.936Z,22.43
2019-02-05T16:24:23.233Z,21.63
2019-02-05T16:26:54.582Z,21.73
2019-02-05T16:29:25.008Z,25.23
2019-02-05T16:31:55.260Z,28.93
2019-02-05T16:34:25.600Z,22.87
2019-02-05T16:36:55.906Z,25.93
2019-02-05T16:39:26.587Z,27.77
2019-02-05T16:41:56.857Z,26.30
2019-02-05T16:44:27.264Z,27.47
2019-02-05T16:46:57.515Z,22.67
2019-02-05T16:49:27.925Z,27.87
2019-02-05T16:51:58.491Z,24.33
2019-02-05T16:54:28.767Z,23.73
2019-02-05T16:56:59.051Z,25.03
2019-02-05T16:59:29.335Z,27.57
2019-02-05T17:02:00.581Z,23.83
2019-02-05T17:04:31.027Z,26.93
2019-02-05T17:07:01.644Z,26.47
2019-02-05T17:09:33.982Z,28.57
2019-02-05T17:12:04.419Z,28.57
2019-02-05T17:14:34.999Z,31.07
2019-02-05T17:17:05.254Z,29.53
2019-02-05T17:19:35.483Z,28.03
2019-02-05T17:22:06.218Z,32.40
2019-02-05T17:24:36.570Z,29.60
2019-02-05T17:27:07.073Z,27.70
2019-02-05T17:29:37.320Z,31.33
2019-02-05T17:32:07.939Z,30.70
2019-02-05T17:34:38.532Z,33.83
2019-02-05T17:37:08.753Z,30.87
2019-02-05T17:39:41.018Z,26.07
2019-02-05T17:42:11.440Z,28.20
2019-02-05T17:45:40.225Z,31.23
2019-02-05T17:49:06.600Z,28.13
2019-02-05T17:51:37.202Z,30.87
2019-02-05T17:54:07.774Z,30.33
2019-02-05T17:56:38.180Z,32.47
2019-02-05T17:59:08.447Z,31.37
2019-02-05T18:01:39.022Z,35.67
2019-02-05T18:04:09.374Z,31.43
2019-02-05T18:06:39.609Z,33.70
2019-02-05T18:09:10.859Z,31.90
2019-02-05T18:11:41.148Z,30.83
2019-02-05T18:14:11.409Z,31.77
2019-02-05T18:16:42.006Z,30.20
2019-02-05T18:19:12.288Z,35.57
2019-02-05T18:21:42.811Z,33.00
2019-02-05T18:24:13.122Z,34.77
2019-02-05T18:26:43.375Z,33.07
2019-02-05T18:29:13.637Z,32.20
2019-02-05T18:31:43.914Z,36.00
2019-02-05T18:34:14.883Z,37.33
2019-02-05T18:36:46.081Z,31.90
2019-02-05T18:39:16.321Z,36.63
2019-02-05T18:41:46.558Z,33.27
2019-02-05T18:44:16.914Z,34.50
2019-02-05T18:46:47.210Z,31.63
2019-02-05T18:49:17.893Z,35.80
2019-02-05T18:51:48.134Z,34.90
2019-02-05T18:54:18.399Z,34.13
2019-02-05T18:56:48.813Z,28.60
2019-02-05T18:59:19.178Z,34.37
2019-02-05T19:01:49.429Z,31.70
2019-02-05T19:04:19.913Z,30.40
2019-02-05T19:06:51.470Z,34.37
2019-02-05T19:09:21.905Z,30.93
2019-02-05T19:11:52.124Z,33.27
2019-02-05T19:14:23.331Z,37.70
2019-02-05T19:16:54.437Z,35.23
2019-02-05T19:19:24.715Z,33.70
2019-02-05T19:21:54.920Z,31.43
2019-02-05T19:24:53.128Z,31.13
2019-02-05T19:27:24.377Z,33.47
2019-02-05T19:29:55.862Z,34.20
2019-02-05T19:32:29.443Z,35.77
2019-02-05T19:35:00.715Z,31.20
2019-02-05T19:37:33.701Z,34.30
2019-02-05T19:40:07.217Z,31.00
2019-02-05T19:42:37.486Z,32.03
2019-02-05T19:45:34.603Z,42.20
2019-02-05T19:48:07.621Z,34.63
2019-02-05T19:50:39.160Z,33.07
2019-02-05T19:53:10.426Z,49.37
2019-02-05T19:55:40.787Z,46.50
2019-02-05T19:58:11.592Z,54.87
2019-02-05T20:00:43.965Z,52.33
2019-02-05T20:03:14.702Z,43.20
2019-02-05T20:05:44.953Z,41.30
2019-02-05T20:08:15.168Z,50.17
2019-02-05T20:10:46.897Z,51.80
2019-02-05T20:13:18.290Z,41.70
2019-02-05T20:15:51.262Z,44.07
2019-02-05T20:18:21.907Z,52.63
2019-02-05T20:20:52.189Z,55.57
2019-02-05T20:23:22.405Z,52.83
2019-02-05T20:25:52.746Z,55.47
2019-02-05T20:28:23.219Z,63.30
2019-02-05T20:30:56.062Z,71.03
2019-02-05T20:33:27.891Z,61.37
2019-02-05T20:35:58.472Z,48.23
2019-02-05T20:38:30.551Z,64.63
2019-02-05T20:41:02.331Z,71.23
2019-02-05T20:43:34.798Z,54.93
2019-02-05T20:46:05.407Z,52.17
2019-02-05T20:48:35.607Z,58.67
2019-02-05T20:51:05.939Z,59.30
2019-02-05T20:53:37.532Z,50.97
2019-02-05T20:56:08.160Z,66.20
2019-02-05T20:58:40.010Z,51.27
2019-02-05T21:01:10.246Z,55.97
2019-02-05T21:03:40.677Z,55.00
2019-02-05T21:06:13.019Z,55.17
2019-02-05T21:08:43.227Z,53.67
2019-02-05T21:11:14.929Z,45.10
2019-02-05T21:13:48.581Z,38.20
2019-02-05T21:16:20.108Z,52.83
2019-02-05T21:18:53.485Z,50.77
2019-02-05T21:21:23.820Z,64.77
2019-02-05T21:23:54.146Z,61.03
2019-02-05T21:26:40.005Z,56.43
2019-02-05T21:29:12.459Z,46.70
2019-02-05T21:31:43.003Z,52.43
2019-02-05T21:34:16.028Z,41.97
2019-02-05T21:36:45.259Z,39.43
2019-02-05T21:39:15.968Z,44.73
2019-02-05T21:41:46.369Z,36.63
2019-02-05T21:44:16.587Z,44.37
2019-02-05T21:46:46.919Z,49.57
2019-02-05T21:49:17.181Z,42.70
2019-02-05T21:51:47.442Z,41.33
2019-02-05T21:54:19.377Z,41.13
2019-02-05T21:56:49.647Z,47.23
2019-02-05T21:59:19.951Z,47.93
2019-02-05T22:01:50.622Z,46.27
2019-02-05T22:04:27.260Z,49.47
2019-02-05T22:06:52.954Z,46.20
2019-02-05T22:09:23.249Z,46.50
2019-02-05T22:11:53.582Z,44.87
2019-02-05T22:14:23.972Z,47.30
2019-02-05T22:16:54.680Z,44.23
2019-02-05T22:19:27.128Z,46.37
2019-02-05T22:21:57.407Z,41.63
2019-02-05T22:24:27.654Z,40.17
2019-02-05T22:26:58.054Z,41.03
2019-02-05T22:29:28.299Z,50.43
2019-02-05T22:31:58.573Z,48.83
2019-02-05T22:34:38.831Z,46.57
2019-02-05T22:37:08.477Z,52.27
2019-02-05T22:39:40.377Z,61.63
2019-02-05T22:42:11.612Z,48.50
2019-02-05T22:44:42.166Z,50.50
2019-02-05T22:47:54.838Z,57.43
2019-02-05T22:50:26.559Z,53.00
2019-02-05T22:52:56.988Z,54.67
2019-02-05T22:55:27.280Z,51.67
2019-02-05T22:57:57.707Z,61.67
2019-02-05T23:00:52.075Z,53.23
2019-02-05T23:03:49.688Z,55.67
2019-02-05T23:06:48.365Z,47.10
2019-02-05T23:09:45.380Z,56.33
2019-02-05T23:12:28.288Z,61.20
2019-02-05T23:15:02.212Z,60.67
2019-02-05T23:17:32.442Z,65.80
2019-02-05T23:20:03.073Z,56.83
2019-02-05T23:22:33.337Z,54.43
2019-02-05T23:25:05.682Z,39.43
2019-02-05T23:27:35.959Z,47.50
2019-02-05T23:30:11.924Z,45.23
2019-02-05T23:32:42.201Z,48.77
2019-02-05T23:35:12.485Z,40.70
2019-02-05T23:37:42.715Z,42.20
2019-02-05T23:40:13.146Z,39.87
2019-02-05T23:42:43.627Z,58.50
2019-02-05T23:45:14.638Z,49.70
2019-02-05T23:47:44.872Z,40.77
2019-02-05T23:50:16.425Z,57.13
2019-02-05T23:52:47.094Z,41.73
2019-02-05T23:55:17.311Z,55.40
2019-02-05T23:57:47.492Z,79.37
